createdAt,value
2019-05-19T00:02:20.438Z,99537.91
2019-05-19T00:04:48.879Z,99539.17
2019-05-19T00:07:17.307Z,99548.00
2019-05-19T00:09:45.745Z,99543.16
2019-05-19T00:12:14.194Z,99540.97
2019-05-19T00:14:42.618Z,99534.56
2019-05-19T00:17:11.130Z,99532.67
2019-05-19T00:19:39.556Z,99536.97
2019-05-19T00:22:07.991Z,99531.84
2019-05-19T00:24:36.442Z,99536.45
2019-05-19T00:27:04.852Z,99533.38
2019-05-19T00:29:33.310Z,99536.16
2019-05-19T00:32:01.729Z,99539.97
2019-05-19T00:34:30.166Z,99539.05
2019-05-19T00:36:58.598Z,99532.27
2019-05-19T00:39:27.026Z,99528.48
2019-05-19T00:41:55.495Z,99521.51
2019-05-19T00:44:23.927Z,99520.48
2019-05-19T00:46:52.439Z,99517.47
2019-05-19T00:49:20.895Z,99521.18
2019-05-19T00:51:49.389Z,99519.58
2019-05-19T00:54:17.885Z,99514.70
2019-05-19T00:56:46.702Z,99509.05
2019-05-19T00:59:15.348Z,99516.30
2019-05-19T01:01:43.773Z,99506.59
2019-05-19T01:04:12.210Z,99508.63
2019-05-19T01:06:40.648Z,99502.80
2019-05-19T01:09:09.133Z,99509.16
2019-05-19T01:11:37.602Z,99509.86
2019-05-19T01:14:06.082Z,99497.72
2019-05-19T01:16:34.521Z,99498.50
2019-05-19T01:19:02.963Z,99490.53
2019-05-19T01:21:32.020Z,99490.86
2019-05-19T01:24:00.476Z,99485.61
2019-05-19T01:26:28.891Z,99482.23
2019-05-19T01:28:57.339Z,99476.12
2019-05-19T01:31:25.894Z,99478.72
2019-05-19T01:33:54.278Z,99484.25
2019-05-19T01:36:22.744Z,99485.08
2019-05-19T01:38:51.144Z,99488.92
2019-05-19T01:41:19.555Z,99488.51
2019-05-19T01:43:48.097Z,99484.45
2019-05-19T01:46:16.512Z,99480.28
2019-05-19T01:48:45.018Z,99483.22
2019-05-19T01:51:13.477Z,99482.43
2019-05-19T01:53:41.894Z,99487.21
2019-05-19T01:56:10.348Z,99485.10
2019-05-19T01:58:38.757Z,99480.86
2019-05-19T02:01:07.181Z,99477.92
2019-05-19T02:03:35.646Z,99478.13
2019-05-19T02:06:04.210Z,99472.59
2019-05-19T02:08:32.639Z,99471.39
2019-05-19T02:11:01.111Z,99463.64
2019-05-19T02:13:29.511Z,99466.61
2019-05-19T02:15:57.940Z,99463.75
2019-05-19T02:18:26.426Z,99471.52
2019-05-19T02:20:54.859Z,99467.30
2019-05-19T02:23:23.293Z,99470.23
2019-05-19T02:25:51.708Z,99472.91
2019-05-19T02:28:20.157Z,99476.37
2019-05-19T02:30:48.599Z,99479.54
2019-05-19T02:33:17.031Z,99477.47
2019-05-19T02:35:45.520Z,99478.48
2019-05-19T02:38:13.924Z,99480.52
2019-05-19T02:40:45.387Z,99478.69
2019-05-19T02:43:15.272Z,99472.97
2019-05-19T02:45:44.223Z,99472.14
2019-05-19T02:48:14.498Z,99473.84
2019-05-19T02:50:52.034Z,99482.06
2019-05-19T02:53:15.857Z,99486.87
2019-05-19T02:55:45.125Z,99489.59
2019-05-19T02:58:14.008Z,99485.64
2019-05-19T03:00:43.611Z,99487.33
2019-05-19T03:03:12.019Z,99480.15
2019-05-19T03:05:40.515Z,99476.35
2019-05-19T03:08:08.939Z,99479.44
2019-05-19T03:10:37.382Z,99479.44
2019-05-19T03:13:05.850Z,99474.63
2019-05-19T03:15:34.283Z,99471.20
2019-05-19T03:18:02.780Z,99477.18
2019-05-19T03:20:31.217Z,99477.44
2019-05-19T03:22:59.727Z,99481.31
2019-05-19T03:25:28.190Z,99483.98
2019-05-19T03:27:56.788Z,99487.82
2019-05-19T03:30:26.945Z,99488.98
2019-05-19T03:32:56.990Z,99492.83
2019-05-19T03:35:25.429Z,99494.21
2019-05-19T03:37:53.844Z,99495.04
2019-05-19T03:40:22.257Z,99498.84
2019-05-19T03:42:51.376Z,99502.67
2019-05-19T03:45:19.943Z,99495.83
2019-05-19T03:47:48.477Z,99495.45
2019-05-19T03:50:17.023Z,99495.87
2019-05-19T03:52:45.428Z,99494.89
2019-05-19T03:55:13.924Z,99493.13
2019-05-19T03:57:42.369Z,99499.06
2019-05-19T04:00:11.325Z,99500.34
2019-05-19T04:02:39.784Z,99498.98
2019-05-19T04:05:08.858Z,99503.61
2019-05-19T04:07:37.291Z,99505.57
2019-05-19T04:10:06.971Z,99502.97
2019-05-19T04:12:35.400Z,99501.58
2019-05-19T04:15:05.272Z,99506.17
2019-05-19T04:17:33.693Z,99502.22
2019-05-19T04:20:02.112Z,99499.02
2019-05-19T04:22:30.561Z,99503.12
2019-05-19T04:24:58.967Z,99497.02
2019-05-19T04:27:27.414Z,99502.92
2019-05-19T04:29:55.844Z,99512.02
2019-05-19T04:32:24.265Z,99511.27
2019-05-19T04:34:52.713Z,99515.03
2019-05-19T04:37:21.131Z,99512.48
2019-05-19T04:39:49.559Z,99516.66
2019-05-19T04:42:18.009Z,99518.98
2019-05-19T04:44:46.494Z,99514.89
2019-05-19T04:47:14.959Z,99521.84
2019-05-19T04:49:43.394Z,99518.42
2019-05-19T04:52:11.815Z,99518.12
2019-05-19T04:54:40.300Z,99520.02
2019-05-19T04:57:08.711Z,99520.79
2019-05-19T04:59:37.120Z,99517.51
2019-05-19T05:02:05.573Z,99522.34
2019-05-19T05:04:33.981Z,99525.32
2019-05-19T05:07:02.423Z,99520.38
2019-05-19T05:09:30.878Z,99521.84
2019-05-19T05:11:59.291Z,99520.64
2019-05-19T05:14:27.729Z,99520.12
2019-05-19T05:16:56.153Z,99511.52
2019-05-19T05:19:24.581Z,99517.72
2019-05-19T05:21:53.026Z,99509.05
2019-05-19T05:24:21.503Z,99505.77
2019-05-19T05:26:49.947Z,99512.05
2019-05-19T05:29:18.384Z,99511.94
2019-05-19T05:31:46.817Z,99516.55
2019-05-19T05:34:15.261Z,99518.38
2019-05-19T05:36:43.745Z,99516.43
2019-05-19T05:39:12.163Z,99516.34
2019-05-19T05:41:40.596Z,99514.95
2019-05-19T05:44:09.100Z,99518.41
2019-05-19T05:46:37.533Z,99518.52
2019-05-19T05:49:05.961Z,99516.08
2019-05-19T05:51:34.382Z,99519.72
2019-05-19T05:54:02.818Z,99516.30
2019-05-19T05:56:31.240Z,99512.93
2019-05-19T05:58:59.657Z,99512.46
2019-05-19T06:01:28.105Z,99510.50
2019-05-19T06:03:56.512Z,99510.84
2019-05-19T06:06:25.130Z,99514.84
2019-05-19T06:08:53.570Z,99509.00
2019-05-19T06:11:22.216Z,99512.42
2019-05-19T06:13:50.660Z,99513.41
2019-05-19T06:16:19.143Z,99516.52
2019-05-19T06:18:47.787Z,99510.62
2019-05-19T06:21:16.217Z,99511.39
2019-05-19T06:23:44.654Z,99515.13
2019-05-19T06:26:13.096Z,99506.07
2019-05-19T06:28:41.528Z,99511.73
2019-05-19T06:31:09.937Z,99513.45
2019-05-19T06:33:38.424Z,99511.08
2019-05-19T06:36:08.703Z,99511.08
2019-05-19T06:38:37.213Z,99504.78
2019-05-19T06:41:05.658Z,99498.83
2019-05-19T06:43:34.214Z,99509.03
2019-05-19T06:46:04.235Z,99509.72
2019-05-19T06:48:32.856Z,99506.98
2019-05-19T06:51:01.364Z,99508.66
2019-05-19T06:53:29.959Z,99505.25
2019-05-19T06:55:58.454Z,99506.34
2019-05-19T06:58:29.352Z,99508.78
2019-05-19T07:00:59.407Z,99503.52
2019-05-19T07:03:29.361Z,99509.23
2019-05-19T07:05:58.066Z,99509.62
2019-05-19T07:08:28.194Z,99509.02
2019-05-19T07:10:56.844Z,99511.47
2019-05-19T07:13:25.436Z,99505.15
2019-05-19T07:15:54.125Z,99511.39
2019-05-19T07:18:22.571Z,99515.67
2019-05-19T07:20:51.287Z,99512.44
2019-05-19T07:23:27.814Z,99509.08
2019-05-19T07:25:50.062Z,99505.75
2019-05-19T07:28:18.634Z,99504.30
2019-05-19T07:30:47.441Z,99506.89
2019-05-19T07:33:16.265Z,99505.13
2019-05-19T07:35:44.648Z,99504.73
2019-05-19T07:38:13.163Z,99496.38
2019-05-19T07:40:41.666Z,99500.02
2019-05-19T07:43:10.075Z,99500.77
2019-05-19T07:45:38.506Z,99500.08
2019-05-19T07:48:06.940Z,99493.22
2019-05-19T07:50:38.018Z,99501.25
2019-05-19T07:53:05.615Z,99498.73
2019-05-19T07:55:34.281Z,99501.23
2019-05-19T07:58:02.688Z,99505.16
2019-05-19T08:00:31.257Z,99504.16
2019-05-19T08:02:59.817Z,99501.25
2019-05-19T08:05:29.776Z,99504.52
2019-05-19T08:07:58.308Z,99503.66
2019-05-19T08:10:26.711Z,99500.41
2019-05-19T08:12:55.139Z,99502.75
2019-05-19T08:15:23.643Z,99491.47
2019-05-19T08:17:52.128Z,99490.58
2019-05-19T08:20:21.035Z,99493.38
2019-05-19T08:22:51.415Z,99493.62
2019-05-19T08:25:19.670Z,99493.65
2019-05-19T08:27:48.118Z,99488.55
2019-05-19T08:30:17.568Z,99492.67
2019-05-19T08:32:45.979Z,99491.31
2019-05-19T08:35:14.602Z,99492.38
2019-05-19T08:37:43.032Z,99491.56
2019-05-19T08:40:11.916Z,99479.34
2019-05-19T08:42:40.341Z,99479.84
2019-05-19T08:45:09.713Z,99485.00
2019-05-19T08:47:38.268Z,99479.03
2019-05-19T08:50:08.520Z,99482.22
2019-05-19T08:52:36.956Z,99490.83
2019-05-19T08:55:06.622Z,99481.77
2019-05-19T08:57:35.066Z,99480.47
2019-05-19T09:00:04.685Z,99488.56
2019-05-19T09:02:34.429Z,99478.67
2019-05-19T09:05:03.249Z,99476.95
2019-05-19T09:07:31.749Z,99467.16
2019-05-19T09:10:00.382Z,99479.69
2019-05-19T09:12:28.838Z,99471.09
2019-05-19T09:14:57.281Z,99472.28
2019-05-19T09:17:25.723Z,99471.69
2019-05-19T09:19:54.160Z,99478.31
2019-05-19T09:22:22.584Z,99471.20
2019-05-19T09:24:51.004Z,99469.26
2019-05-19T09:27:19.501Z,99464.03
2019-05-19T09:29:47.928Z,99469.64
2019-05-19T09:32:16.582Z,99461.76
2019-05-19T09:34:45.054Z,99459.51
2019-05-19T09:37:13.565Z,99454.31
2019-05-19T09:39:42.022Z,99452.01
2019-05-19T09:42:10.586Z,99453.46
2019-05-19T09:44:39.021Z,99456.72
2019-05-19T09:47:07.552Z,99456.77
2019-05-19T09:49:36.342Z,99450.97
2019-05-19T09:52:07.014Z,99443.31
2019-05-19T09:54:44.710Z,99455.50
2019-05-19T09:57:05.829Z,99442.58
2019-05-19T09:59:34.259Z,99442.60
2019-05-19T10:02:02.767Z,99448.38
2019-05-19T10:04:31.246Z,99429.12
2019-05-19T10:06:59.925Z,99456.36
2019-05-19T10:09:47.161Z,99447.39
2019-05-19T10:12:15.569Z,99455.31
2019-05-19T10:14:43.984Z,99450.48
2019-05-19T10:17:12.424Z,99443.28
2019-05-19T10:19:40.873Z,99452.10
2019-05-19T10:22:09.367Z,99440.98
2019-05-19T10:24:37.785Z,99441.78
2019-05-19T10:27:06.211Z,99451.54
2019-05-19T10:29:34.654Z,99444.47
2019-05-19T10:32:03.064Z,99438.67
2019-05-19T10:34:31.502Z,99437.54
2019-05-19T10:36:59.925Z,99426.81
2019-05-19T10:39:28.399Z,99433.48
2019-05-19T10:41:56.939Z,99437.27
2019-05-19T10:44:25.354Z,99430.63
2019-05-19T10:46:53.816Z,99433.05
2019-05-19T10:49:22.372Z,99425.73
2019-05-19T10:51:51.020Z,99426.30
2019-05-19T10:54:19.551Z,99422.98
2019-05-19T10:56:48.112Z,99429.36
2019-05-19T10:59:16.541Z,99421.69
2019-05-19T11:01:44.962Z,99427.11
2019-05-19T11:04:13.358Z,99421.23
2019-05-19T11:06:41.800Z,99424.36
2019-05-19T11:09:10.229Z,99429.76
2019-05-19T11:11:38.744Z,99415.86
2019-05-19T11:14:07.250Z,99412.61
2019-05-19T11:16:35.686Z,99414.45
2019-05-19T11:19:04.246Z,99414.92
2019-05-19T11:21:32.680Z,99407.42
2019-05-19T11:24:01.144Z,99406.53
2019-05-19T11:26:29.557Z,99405.91
2019-05-19T11:28:57.996Z,99407.51
2019-05-19T11:31:26.477Z,99395.16
2019-05-19T11:33:54.907Z,99398.97
2019-05-19T11:36:23.353Z,99404.80
2019-05-19T11:38:51.768Z,99392.89
2019-05-19T11:41:20.201Z,99399.37
2019-05-19T11:43:48.677Z,99397.02
2019-05-19T11:46:17.929Z,99397.91
2019-05-19T11:48:46.390Z,99402.28
2019-05-19T11:51:14.792Z,99398.94
2019-05-19T11:53:43.282Z,99394.53
2019-05-19T11:56:11.829Z,99388.48
2019-05-19T11:58:40.251Z,99390.41
2019-05-19T12:01:08.670Z,99394.41
2019-05-19T12:03:37.084Z,99388.54
2019-05-19T12:06:05.512Z,99389.34
2019-05-19T12:08:33.964Z,99385.69
2019-05-19T12:11:02.452Z,99376.88
2019-05-19T12:13:39.440Z,99382.18
2019-05-19T12:16:09.035Z,99370.48
2019-05-19T12:18:37.437Z,99377.78
2019-05-19T12:21:05.923Z,99381.78
2019-05-19T12:23:35.261Z,99375.17
2019-05-19T12:26:03.716Z,99380.94
2019-05-19T12:28:32.219Z,99376.02
2019-05-19T12:31:00.661Z,99373.73
2019-05-19T12:33:29.153Z,99375.37
2019-05-19T12:35:57.647Z,99375.46
2019-05-19T12:38:26.081Z,99376.81
2019-05-19T12:40:54.527Z,99366.23
2019-05-19T12:43:22.927Z,99360.74
2019-05-19T12:45:51.521Z,99358.00
2019-05-19T12:48:20.154Z,99361.37
2019-05-19T12:50:48.579Z,99363.16
2019-05-19T12:53:17.032Z,99367.20
2019-05-19T12:55:45.527Z,99355.04
2019-05-19T12:58:13.976Z,99355.13
2019-05-19T13:00:42.416Z,99352.73
2019-05-19T13:03:10.822Z,99344.14
2019-05-19T13:05:39.257Z,99347.22
2019-05-19T13:08:08.641Z,99345.83
2019-05-19T13:10:38.063Z,99348.97
2019-05-19T13:13:06.526Z,99350.84
2019-05-19T13:15:35.021Z,99340.05
2019-05-19T13:18:03.721Z,99342.40
2019-05-19T13:20:32.230Z,99352.50
2019-05-19T13:23:00.637Z,99337.02
2019-05-19T13:25:29.068Z,99329.62
2019-05-19T13:27:57.491Z,99324.57
2019-05-19T13:30:25.903Z,99328.42
2019-05-19T13:32:54.330Z,99328.00
2019-05-19T13:35:22.839Z,99326.50
2019-05-19T13:37:51.485Z,99310.50
2019-05-19T13:40:19.962Z,99311.12
2019-05-19T13:42:48.393Z,99318.42
2019-05-19T13:45:17.046Z,99312.62
2019-05-19T13:47:45.481Z,99305.47
2019-05-19T13:50:14.371Z,99319.11
2019-05-19T13:52:42.796Z,99325.38
2019-05-19T13:55:11.357Z,99318.73
2019-05-19T13:57:39.800Z,99319.84
2019-05-19T14:00:09.850Z,99321.53
2019-05-19T14:02:38.251Z,99316.84
2019-05-19T14:05:07.014Z,99311.89
2019-05-19T14:07:35.471Z,99315.63
2019-05-19T14:10:06.923Z,99312.08
2019-05-19T14:12:35.424Z,99310.23
2019-05-19T14:15:05.346Z,99307.28
2019-05-19T14:17:33.830Z,99309.34
2019-05-19T14:20:02.273Z,99308.94
2019-05-19T14:22:31.073Z,99304.69
2019-05-19T14:24:59.523Z,99303.59
2019-05-19T14:27:30.725Z,99306.52
2019-05-19T14:29:58.122Z,99313.95
2019-05-19T14:32:26.511Z,99312.20
2019-05-19T14:34:54.905Z,99306.97
2019-05-19T14:37:23.335Z,99315.42
2019-05-19T14:39:51.741Z,99322.18
2019-05-19T14:42:37.737Z,99337.11
2019-05-19T14:45:08.770Z,99322.95
2019-05-19T14:47:37.226Z,99326.82
2019-05-19T14:50:06.942Z,99320.61
2019-05-19T14:52:35.356Z,99324.27
2019-05-19T14:55:04.223Z,99332.99
2019-05-19T14:57:44.448Z,99321.19
2019-05-19T15:00:04.440Z,99330.09
2019-05-19T15:02:32.874Z,99323.91
2019-05-19T15:05:01.303Z,99321.87
2019-05-19T15:07:29.715Z,99320.59
2019-05-19T15:09:58.124Z,99321.73
2019-05-19T15:12:26.550Z,99324.59
2019-05-19T15:14:54.988Z,99321.41
2019-05-19T15:17:23.525Z,99317.94
2019-05-19T15:19:51.923Z,99315.13
2019-05-19T15:22:20.428Z,99312.94
2019-05-19T15:24:48.840Z,99299.48
2019-05-19T15:27:17.264Z,99307.70
2019-05-19T15:29:45.679Z,99311.81
2019-05-19T15:32:14.095Z,99309.59
2019-05-19T15:34:42.513Z,99305.90
2019-05-19T15:37:10.937Z,99306.01
2019-05-19T15:39:39.351Z,99298.00
2019-05-19T15:42:07.790Z,99288.08
2019-05-19T15:44:36.215Z,99286.77
2019-05-19T15:47:04.702Z,99280.04
2019-05-19T15:49:33.118Z,99279.71
2019-05-19T15:52:04.873Z,99280.47
2019-05-19T15:54:31.690Z,99275.50
2019-05-19T15:57:00.136Z,99269.22
2019-05-19T15:59:28.557Z,99259.78
2019-05-19T16:01:56.986Z,99263.94
2019-05-19T16:04:25.483Z,99257.46
2019-05-19T16:06:53.884Z,99258.38
2019-05-19T16:09:22.325Z,99259.75
2019-05-19T16:11:50.733Z,99257.77
2019-05-19T16:14:19.150Z,99251.69
2019-05-19T16:16:47.657Z,99256.52
2019-05-19T16:19:16.069Z,99250.74
2019-05-19T16:21:44.536Z,99256.78
2019-05-19T16:24:12.958Z,99252.27
2019-05-19T16:26:41.376Z,99253.84
2019-05-19T16:29:09.798Z,99262.98
2019-05-19T16:31:38.201Z,99252.27
2019-05-19T16:34:06.925Z,99251.58
2019-05-19T16:36:35.379Z,99249.66
2019-05-19T16:39:05.076Z,99241.89
2019-05-19T16:41:33.502Z,99239.90
2019-05-19T16:44:01.956Z,99249.98
2019-05-19T16:46:30.348Z,99243.33
2019-05-19T16:48:58.850Z,99248.45
2019-05-19T16:51:27.347Z,99241.83
2019-05-19T16:53:57.662Z,99236.23
2019-05-19T16:56:26.107Z,99240.22
2019-05-19T16:58:54.504Z,99235.00
2019-05-19T17:01:23.005Z,99238.43
2019-05-19T17:03:51.456Z,99248.94
2019-05-19T17:06:19.845Z,99242.02
2019-05-19T17:08:48.358Z,99237.02
2019-05-19T17:11:18.594Z,99239.49
2019-05-19T17:13:47.023Z,99237.48
2019-05-19T17:16:15.466Z,99240.44
2019-05-19T17:18:43.878Z,99235.38
2019-05-19T17:21:12.303Z,99244.45
2019-05-19T17:23:40.755Z,99237.92
2019-05-19T17:26:09.164Z,99237.48
2019-05-19T17:28:37.587Z,99235.64
2019-05-19T17:31:07.758Z,99237.33
2019-05-19T17:33:36.378Z,99230.77
2019-05-19T17:36:04.902Z,99236.13
2019-05-19T17:38:33.316Z,99237.10
2019-05-19T17:41:01.737Z,99242.94
2019-05-19T17:43:30.163Z,99242.49
2019-05-19T17:45:58.581Z,99249.30
2019-05-19T17:48:27.197Z,99248.93
2019-05-19T17:50:55.931Z,99253.17
2019-05-19T17:53:24.337Z,99250.11
2019-05-19T17:55:54.399Z,99242.28
2019-05-19T17:58:23.688Z,99251.02
2019-05-19T18:00:52.109Z,99254.64
2019-05-19T18:03:20.674Z,99252.27
2019-05-19T18:05:49.137Z,99249.59
2019-05-19T18:08:17.540Z,99256.87
2019-05-19T18:10:45.937Z,99254.02
2019-05-19T18:13:14.360Z,99248.83
2019-05-19T18:15:42.792Z,99252.49
2019-05-19T18:18:11.276Z,99248.20
2019-05-19T18:20:39.922Z,99255.77
2019-05-19T18:23:08.353Z,99254.75
2019-05-19T18:25:36.765Z,99256.66
2019-05-19T18:28:05.225Z,99258.35
2019-05-19T18:30:33.734Z,99255.75
2019-05-19T18:33:02.246Z,99262.32
2019-05-19T18:35:30.704Z,99267.37
2019-05-19T18:37:59.190Z,99262.72
2019-05-19T18:40:27.644Z,99261.70
2019-05-19T18:42:56.097Z,99265.05
2019-05-19T18:45:24.746Z,99263.80
2019-05-19T18:47:53.294Z,99261.09
2019-05-19T18:50:21.670Z,99263.11
2019-05-19T18:52:50.111Z,99262.54
2019-05-19T18:55:18.551Z,99254.41
2019-05-19T18:57:46.989Z,99261.19
2019-05-19T19:00:18.520Z,99259.07
2019-05-19T19:02:48.041Z,99268.58
2019-05-19T19:05:16.854Z,99260.58
2019-05-19T19:07:49.647Z,99263.77
2019-05-19T19:10:19.227Z,99263.67
2019-05-19T19:12:48.143Z,99268.13
2019-05-19T19:15:16.677Z,99262.83
2019-05-19T19:17:45.049Z,99259.52
2019-05-19T19:20:13.924Z,99263.98
2019-05-19T19:22:42.340Z,99270.48
2019-05-19T19:25:10.957Z,99274.88
2019-05-19T19:27:39.460Z,99270.97
2019-05-19T19:30:08.923Z,99277.69
2019-05-19T19:32:37.476Z,99278.28
2019-05-19T19:35:07.405Z,99285.34
2019-05-19T19:37:35.901Z,99295.69
2019-05-19T19:40:06.451Z,99295.69
2019-05-19T19:42:34.900Z,99292.17
2019-05-19T19:45:03.561Z,99288.83
2019-05-19T19:47:31.961Z,99293.44
2019-05-19T19:50:00.425Z,99290.92
2019-05-19T19:52:28.870Z,99296.46
2019-05-19T19:54:57.286Z,99296.46
2019-05-19T19:57:25.709Z,99298.17
2019-05-19T19:59:54.115Z,99291.55
2019-05-19T20:02:22.519Z,99298.75
2019-05-19T20:04:50.956Z,99306.88
2019-05-19T20:07:19.404Z,99302.98
2019-05-19T20:09:47.829Z,99304.28
2019-05-19T20:12:16.308Z,99312.03
2019-05-19T20:14:44.803Z,99315.31
2019-05-19T20:17:13.257Z,99316.02
2019-05-19T20:19:41.728Z,99319.73
2019-05-19T20:22:10.150Z,99323.37
2019-05-19T20:24:38.595Z,99330.02
2019-05-19T20:27:07.080Z,99326.17
2019-05-19T20:29:35.501Z,99329.58
2019-05-19T20:32:03.997Z,99331.79
2019-05-19T20:34:32.698Z,99332.23
2019-05-19T20:37:01.213Z,99330.59
2019-05-19T20:39:30.087Z,99333.52
2019-05-19T20:41:58.513Z,99333.94
2019-05-19T20:44:27.007Z,99325.05
2019-05-19T20:46:55.428Z,99322.50
2019-05-19T20:49:23.925Z,99327.38
2019-05-19T20:51:52.337Z,99321.46
2019-05-19T20:54:20.772Z,99320.11
2019-05-19T20:56:49.199Z,99324.95
2019-05-19T20:59:17.673Z,99323.67
2019-05-19T21:01:46.152Z,99321.88
2019-05-19T21:04:14.654Z,99326.80
2019-05-19T21:06:43.070Z,99325.10
2019-05-19T21:09:11.495Z,99326.72
2019-05-19T21:11:39.913Z,99324.06
2019-05-19T21:14:10.786Z,99325.11
2019-05-19T21:16:39.213Z,99325.61
2019-05-19T21:19:07.672Z,99325.93
2019-05-19T21:21:36.097Z,99322.70
2019-05-19T21:24:04.512Z,99315.16
2019-05-19T21:26:32.930Z,99318.78
2019-05-19T21:29:01.446Z,99318.82
2019-05-19T21:31:29.861Z,99318.06
2019-05-19T21:33:58.270Z,99315.14
2019-05-19T21:36:26.702Z,99311.66
2019-05-19T21:38:55.109Z,99313.58
2019-05-19T21:41:23.522Z,99310.68
2019-05-19T21:43:53.411Z,99313.77
2019-05-19T21:46:21.876Z,99315.32
2019-05-19T21:48:50.322Z,99314.21
2019-05-19T21:51:18.756Z,99318.67
2019-05-19T21:53:48.366Z,99318.42
2019-05-19T21:56:16.814Z,99316.78
2019-05-19T21:58:45.212Z,99311.27
2019-05-19T22:01:22.711Z,99309.06
2019-05-19T22:03:44.244Z,99314.63
2019-05-19T22:06:12.719Z,99309.27
2019-05-19T22:08:41.249Z,99313.33
2019-05-19T22:11:09.679Z,99312.34
2019-05-19T22:13:38.226Z,99316.42
2019-05-19T22:16:12.935Z,99316.37
2019-05-19T22:18:36.775Z,99325.06
2019-05-19T22:21:05.210Z,99323.96
2019-05-19T22:23:33.638Z,99320.64
2019-05-19T22:26:02.065Z,99326.75
2019-05-19T22:28:30.478Z,99324.42
2019-05-19T22:30:58.908Z,99331.64
2019-05-19T22:33:27.384Z,99332.09
2019-05-19T22:35:55.826Z,99321.14
2019-05-19T22:38:24.222Z,99318.27
2019-05-19T22:40:52.629Z,99323.62
2019-05-19T22:43:21.069Z,99318.64
2019-05-19T22:45:49.490Z,99316.66
2019-05-19T22:48:17.914Z,99314.64
2019-05-19T22:50:47.184Z,99312.16
2019-05-19T22:53:15.599Z,99307.27
2019-05-19T22:55:44.046Z,99304.12
2019-05-19T22:58:12.474Z,99298.88
2019-05-19T23:00:40.951Z,99300.80
2019-05-19T23:03:09.472Z,99311.76
2019-05-19T23:05:37.887Z,99308.16
2019-05-19T23:08:06.310Z,99308.63
2019-05-19T23:10:35.986Z,99304.38
2019-05-19T23:13:04.397Z,99295.22
2019-05-19T23:15:32.832Z,99304.17
2019-05-19T23:18:01.329Z,99309.72
2019-05-19T23:20:29.759Z,99306.86
2019-05-19T23:22:58.188Z,99308.14
2019-05-19T23:25:26.625Z,99312.34
2019-05-19T23:27:55.050Z,99308.89
2019-05-19T23:30:23.512Z,99307.63
2019-05-19T23:32:51.939Z,99307.16
2019-05-19T23:35:20.365Z,99306.77
2019-05-19T23:37:48.797Z,99311.38
2019-05-19T23:40:17.288Z,99299.94
2019-05-19T23:42:45.722Z,99299.27
2019-05-19T23:45:16.414Z,99295.75
2019-05-19T23:47:44.804Z,99292.55
2019-05-19T23:50:13.378Z,99292.75
2019-05-19T23:52:41.813Z,99289.17
2019-05-19T23:55:10.574Z,99289.64
2019-05-19T23:57:39.014Z,99290.55
